Time;durP1;ratioP1;P1;durP2;ratioP2;P2;SDS_P1;SDS_P2;PMS_P1;PMS_P2;Temp;Humidity;BMP_temperature;BMP_pressure;BME280_temperature;BME280_humidity;BME280_pressure;Samples;Min_cycle;Max_cycle;Signal;HPM_P1;HPM_P2
2021/09/13 00:10:18;;;;;;;12.85;6.82;;;18.50;99.90;;;;;;4800797;27;9248452;-91
2021/09/13 00:12:51;;;;;;;14.00;6.40;;;16.90;99.90;;;;;;5087556;28;20070;-91
2021/09/13 00:15:21;;;;;;;19.10;6.63;;;16.90;99.90;;;;;;5078569;28;20036;-91
2021/09/13 00:18:03;;;;;;;11.55;6.07;;;16.80;99.90;;;;;;5085189;28;20051;-91
2021/09/13 00:20:33;;;;;;;12.90;6.95;;;16.80;99.90;;;;;;5081881;28;20048;-91
2021/09/13 00:23:32;;;;;;;15.05;6.38;;;16.80;99.90;;;;;;5092161;28;20028;-90
2021/09/13 00:26:04;;;;;;;12.82;5.90;;;16.80;99.90;;;;;;5069340;28;20040;-91
2021/09/13 00:28:35;;;;;;;17.03;6.77;;;16.80;99.90;;;;;;5062216;28;20036;-91
2021/09/13 00:31:06;;;;;;;14.15;6.53;;;16.70;99.90;;;;;;5075482;28;20041;-91
2021/09/13 00:33:49;;;;;;;13.50;6.95;;;16.80;99.90;;;;;;5095393;28;20044;-91
2021/09/13 00:36:21;;;;;;;11.52;5.47;;;16.70;99.90;;;;;;5096150;28;20585;-91
2021/09/13 00:38:51;;;;;;;12.93;7.23;;;16.70;99.90;;;;;;5081750;28;20042;-91
2021/09/13 00:41:21;;;;;;;11.95;6.28;;;16.70;99.90;;;;;;5085741;28;20028;-90
2021/09/13 00:43:51;;;;;;;14.95;8.00;;;16.70;99.90;;;;;;5081613;28;20055;-91
2021/09/13 00:59:21;;;;;;;10.05;5.13;;;16.70;99.90;;;;;;5010833;28;20050;-90
2021/09/13 01:02:03;;;;;;;11.10;5.22;;;16.80;99.90;;;;;;4966262;28;20064;-90
2021/09/13 01:04:39;;;;;;;9.07;4.50;;;16.70;99.90;;;;;;4992419;28;20038;-91
2021/09/13 01:07:14;;;;;;;10.70;5.07;;;16.60;99.90;;;;;;4951756;28;20051;-90
2021/09/13 01:09:52;;;;;;;13.40;5.85;;;17.10;99.90;;;;;;4985442;28;20049;-90
2021/09/13 01:12:37;;;;;;;15.05;5.07;;;16.70;99.90;;;;;;4988963;28;20055;-90
2021/09/13 01:15:10;;;;;;;13.77;5.80;;;16.50;99.90;;;;;;5011707;22;20030;-90
2021/09/13 01:17:44;;;;;;;8.55;4.72;;;16.70;99.90;;;;;;5029045;28;20036;-90
2021/09/13 01:20:14;;;;;;;18.05;5.10;;;16.60;99.90;;;;;;5033344;23;20040;-91
2021/09/13 01:22:49;;;;;;;14.30;5.20;;;16.50;99.90;;;;;;5004565;28;20044;-91
2021/09/13 01:25:17;;;;;;;9.23;4.65;;;16.40;99.90;;;;;;5031618;22;20056;-90
2021/09/13 01:27:48;;;;;;;10.88;4.93;;;16.40;99.90;;;;;;5012779;28;20025;-90
2021/09/13 01:36:38;;;;;;;9.88;4.22;;;16.30;99.90;;;;;;5050372;28;20034;-89
2021/09/13 01:39:12;;;;;;;9.20;3.70;;;15.80;99.90;;;;;;5016968;28;20060;-90
2021/09/13 01:41:43;;;;;;;10.47;4.13;;;16.20;99.90;;;;;;5019242;28;20052;-91
2021/09/13 01:44:17;;;;;;;12.57;3.70;;;16.10;99.90;;;;;;5014459;28;20055;-91
2021/09/13 01:46:48;;;;;;;11.80;4.25;;;16.10;99.90;;;;;;5013056;28;20054;-90
2021/09/13 01:49:19;;;;;;;5.43;2.75;;;15.90;99.90;;;;;;4997341;28;20056;-89
2021/09/13 01:51:50;;;;;;;9.55;3.40;;;15.40;99.90;;;;;;5038745;28;20042;-89
2021/09/13 01:54:21;;;;;;;10.95;3.20;;;15.90;99.90;;;;;;5002425;28;20056;-90
2021/09/13 01:56:51;;;;;;;8.82;3.72;;;15.90;99.90;;;;;;5006163;28;20548;-90
2021/09/13 01:59:35;;;;;;;10.00;3.65;;;15.90;99.90;;;;;;5016476;28;20033;-90
2021/09/13 02:02:03;;;;;;;5.95;3.15;;;15.80;99.90;;;;;;5022370;28;20053;-92
2021/09/13 02:04:33;;;;;;;9.30;3.47;;;15.80;99.90;;;;;;5013859;28;20163;-90
2021/09/13 02:07:03;;;;;;;10.43;3.90;;;15.70;99.90;;;;;;5033116;28;20042;-90
2021/09/13 02:09:31;;;;;;;7.57;3.20;;;15.70;99.90;;;;;;4986825;28;20040;-89
2021/09/13 02:11:59;;;;;;;16.75;5.05;;;15.60;99.90;;;;;;5015858;28;20048;-89
2021/09/13 02:14:30;;;;;;;8.40;3.80;;;15.60;99.90;;;;;;5029167;28;20052;-89
2021/09/13 02:16:59;;;;;;;9.40;3.75;;;15.50;99.90;;;;;;4999868;23;20027;-90
2021/09/13 02:19:29;;;;;;;12.55;4.22;;;15.50;99.90;;;;;;4963516;28;20064;-90
2021/09/13 02:21:58;;;;;;;10.20;3.67;;;15.40;99.90;;;;;;4995089;28;20059;-89
2021/09/13 02:24:27;;;;;;;12.88;3.85;;;15.40;99.90;;;;;;4982196;28;20031;-89
2021/09/13 02:26:58;;;;;;;11.43;3.50;;;15.40;99.90;;;;;;4952336;28;20060;-90
2021/09/13 02:29:26;;;;;;;9.98;2.92;;;15.40;99.90;;;;;;4979791;28;20058;-90
2021/09/13 02:31:56;;;;;;;7.10;3.05;;;15.40;99.90;;;;;;4985002;28;20042;-90
2021/09/13 02:34:25;;;;;;;9.82;3.15;;;15.40;99.90;;;;;;4995886;28;20038;-90
2021/09/13 02:36:56;;;;;;;4.50;2.65;;;15.40;99.90;;;;;;4963862;28;20048;-89
2021/09/13 02:39:25;;;;;;;4.72;3.03;;;15.30;99.90;;;;;;4979524;28;20027;-89
2021/09/13 02:41:54;;;;;;;17.75;3.58;;;15.30;99.90;;;;;;4995863;28;20027;-90
2021/09/13 02:44:26;;;;;;;10.30;3.42;;;15.20;99.90;;;;;;4959793;28;20027;-88
2021/09/13 02:46:54;;;;;;;8.75;3.42;;;15.30;99.90;;;;;;4976119;28;20030;-91
2021/09/13 02:49:28;;;;;;;10.05;3.28;;;15.20;99.90;;;;;;4980765;28;20045;-90
2021/09/13 02:51:57;;;;;;;12.25;5.07;;;15.20;99.90;;;;;;4968906;28;20044;-90
2021/09/13 02:54:30;;;;;;;11.50;3.95;;;15.20;99.90;;;;;;4991404;28;20037;-90
2021/09/13 02:57:03;;;;;;;7.75;4.40;;;15.10;99.90;;;;;;4992427;28;20038;-90
2021/09/13 02:59:33;;;;;;;14.55;4.55;;;15.10;99.90;;;;;;4953825;28;20043;-90
2021/09/13 03:02:04;;;;;;;11.95;3.78;;;15.00;99.90;;;;;;4930529;28;20057;-90
2021/09/13 03:04:34;;;;;;;11.68;3.67;;;15.00;99.90;;;;;;4987568;28;20069;-90
2021/09/13 03:07:06;;;;;;;13.27;4.32;;;15.00;99.90;;;;;;4949584;29;20049;-90
2021/09/13 03:09:34;;;;;;;13.30;4.22;;;15.00;99.90;;;;;;4962418;28;20035;-90
2021/09/13 03:12:04;;;;;;;9.32;3.85;;;14.90;99.90;;;;;;4961995;28;20038;-88
2021/09/13 03:14:33;;;;;;;18.33;4.88;;;14.90;99.90;;;;;;4945697;29;20039;-90
2021/09/13 03:17:04;;;;;;;9.90;5.10;;;14.90;99.90;;;;;;4972614;28;20065;-90
2021/09/13 03:19:35;;;;;;;11.80;3.97;;;14.90;99.90;;;;;;4940405;29;20037;-89
2021/09/13 03:22:06;;;;;;;12.73;4.60;;;14.90;99.90;;;;;;4942120;29;20052;-90
2021/09/13 03:24:34;;;;;;;10.00;5.32;;;14.90;99.90;;;;;;4958414;28;20055;-90
2021/09/13 03:27:03;;;;;;;13.45;4.20;;;14.80;99.90;;;;;;4987565;28;20050;-89
2021/09/13 03:29:34;;;;;;;8.88;3.97;;;14.80;99.90;;;;;;4943177;28;20049;-91
2021/09/13 03:32:07;;;;;;;11.55;4.90;;;14.80;99.90;;;;;;4958009;28;20049;-90
2021/09/13 03:34:36;;;;;;;18.67;5.03;;;14.70;99.90;;;;;;4939003;29;20062;-91
2021/09/13 03:37:05;;;;;;;15.48;4.75;;;14.30;99.90;;;;;;4945380;29;20047;-90
2021/09/13 03:39:33;;;;;;;16.85;4.60;;;14.80;99.90;;;;;;4952381;28;20055;-89
2021/09/13 03:42:02;;;;;;;14.60;5.15;;;14.70;99.90;;;;;;4952976;28;20422;-90
2021/09/13 03:44:30;;;;;;;14.13;4.90;;;14.70;99.90;;;;;;4950130;28;20086;-91
2021/09/13 03:47:06;;;;;;;10.25;4.07;;;14.70;99.90;;;;;;4961550;28;20058;-89
2021/09/13 03:49:49;;;;;;;8.57;4.25;;;14.60;99.90;;;;;;4963961;28;20386;-90
2021/09/13 03:52:18;;;;;;;9.13;3.85;;;14.60;99.90;;;;;;4965719;28;20039;-91
2021/09/13 03:54:46;;;;;;;13.38;5.40;;;14.60;99.90;;;;;;4980222;28;20057;-90
2021/09/13 03:57:14;;;;;;;17.05;4.70;;;14.60;99.90;;;;;;4947505;28;20050;-89
2021/09/13 03:59:42;;;;;;;12.20;3.95;;;14.60;99.90;;;;;;4981906;28;20058;-90
2021/09/13 04:02:17;;;;;;;14.02;3.65;;;14.60;99.90;;;;;;4928838;29;20055;-90
2021/09/13 04:04:49;;;;;;;13.90;5.10;;;14.60;99.90;;;;;;4971103;28;20058;-90
2021/09/13 04:07:34;;;;;;;15.60;6.32;;;14.60;99.90;;;;;;4975469;28;20061;-89
2021/09/13 04:10:52;;;;;;;13.10;3.83;;;14.50;99.90;;;;;;4979585;28;20054;-90
2021/09/13 04:13:46;;;;;;;9.25;3.78;;;14.50;99.90;;;;;;4949759;28;20043;-90
2021/09/13 04:16:30;;;;;;;11.82;4.15;;;14.60;99.90;;;;;;4963781;28;20055;-90
2021/09/13 04:19:19;;;;;;;8.30;4.43;;;14.60;99.90;;;;;;4947254;29;20051;-89
2021/09/13 04:22:07;;;;;;;7.85;3.20;;;14.60;99.90;;;;;;4964763;28;20070;-90
2021/09/13 04:24:59;;;;;;;23.52;4.78;;;14.60;99.90;;;;;;4944965;29;20561;-90
2021/09/13 04:27:47;;;;;;;13.88;3.72;;;14.60;99.90;;;;;;4932889;29;20051;-90
2021/09/13 04:30:36;;;;;;;16.20;3.78;;;14.30;99.90;;;;;;4962348;28;20553;-90
2021/09/13 04:33:23;;;;;;;10.15;4.53;;;14.60;99.90;;;;;;4960016;28;20051;-90
2021/09/13 04:36:17;;;;;;;;;;;14.60;99.90;;;;;;5094824;23;20055;-90
2021/09/13 04:39:05;;;;;;;8.80;3.40;;;14.60;99.90;;;;;;4970421;28;19926;-90
2021/09/13 04:41:56;;;;;;;9.27;3.75;;;14.70;99.90;;;;;;5016637;28;20042;-90
2021/09/13 04:44:56;;;;;;;13.95;4.07;;;14.60;99.90;;;;;;4980600;28;20050;-89
2021/09/13 04:47:52;;;;;;;12.98;4.97;;;15.40;99.90;;;;;;4978219;28;20055;-91
2021/09/13 04:50:40;;;;;;;8.98;4.38;;;14.50;99.90;;;;;;4949177;28;20050;-90
2021/09/13 04:53:38;;;;;;;11.75;3.63;;;14.40;99.90;;;;;;4973889;28;20066;-89
2021/09/13 04:56:12;;;;;;;17.48;5.72;;;14.40;99.90;;;;;;4985085;28;20057;-88
2021/09/13 04:58:41;;;;;;;13.75;3.45;;;14.70;99.90;;;;;;4989684;28;20038;-88
2021/09/13 05:01:35;;;;;;;11.02;3.20;;;14.40;99.90;;;;;;4996966;28;20051;-90
2021/09/13 05:04:09;;;;;;;12.07;3.83;;;14.30;99.90;;;;;;4970415;28;20058;-90
2021/09/13 05:06:48;;;;;;;12.18;5.43;;;14.30;99.90;;;;;;4987144;28;20063;-89
2021/09/13 05:09:16;;;;;;;15.73;3.75;;;14.30;99.90;;;;;;4972168;28;20062;-90
2021/09/13 05:11:51;;;;;;;10.05;3.72;;;14.30;99.90;;;;;;4991783;28;20052;-90
2021/09/13 05:14:27;;;;;;;9.57;3.88;;;14.30;99.90;;;;;;5004366;28;20060;-88
2021/09/13 05:17:30;;;;;;;10.13;3.97;;;14.30;99.90;;;;;;4976185;28;20060;-90
2021/09/13 05:20:20;;;;;;;11.30;3.72;;;14.20;99.90;;;;;;5007755;28;20058;-89
2021/09/13 05:23:11;;;;;;;9.68;3.40;;;14.20;99.90;;;;;;4986895;28;20092;-89
2021/09/13 05:25:56;;;;;;;13.45;3.88;;;14.20;99.90;;;;;;5027711;28;20065;-89
2021/09/13 05:28:33;;;;;;;10.98;4.90;;;14.20;99.90;;;;;;5009541;28;20089;-90
2021/09/13 05:31:10;;;;;;;13.13;3.88;;;14.10;99.90;;;;;;4989844;28;20054;-89
2021/09/13 05:33:42;;;;;;;11.65;3.78;;;14.40;99.90;;;;;;5000151;28;20043;-90
2021/09/13 05:36:26;;;;;;;13.60;3.15;;;14.10;99.90;;;;;;5024944;28;20073;-89
2021/09/13 05:38:57;;;;;;;15.15;4.25;;;14.10;99.90;;;;;;4998532;28;20044;-90
2021/09/13 05:41:45;;;;;;;12.23;3.75;;;14.10;99.90;;;;;;4974553;28;20053;-90
2021/09/13 05:44:17;;;;;;;10.52;4.18;;;14.10;99.90;;;;;;5000470;28;20038;-90
2021/09/13 05:46:53;;;;;;;6.82;3.40;;;14.10;99.90;;;;;;4986076;28;20055;-90
2021/09/13 05:49:24;;;;;;;11.80;4.38;;;14.10;99.90;;;;;;4993562;28;20057;-91
2021/09/13 05:51:59;;;;;;;9.65;5.20;;;14.10;99.90;;;;;;4983753;28;20486;-89
2021/09/13 05:54:44;;;;;;;10.20;4.20;;;14.10;99.90;;;;;;4998641;28;20060;-89
2021/09/13 05:57:45;;;;;;;14.60;4.47;;;14.10;99.90;;;;;;4994685;28;20050;-89
2021/09/13 06:00:23;;;;;;;13.45;4.45;;;14.00;99.90;;;;;;4998159;28;20065;-90
2021/09/13 06:03:33;;;;;;;15.38;4.68;;;14.10;99.90;;;;;;4985628;28;20054;-89
2021/09/13 06:06:29;;;;;;;14.43;4.00;;;14.00;99.90;;;;;;5007679;28;20051;-91
2021/09/13 06:09:18;;;;;;;20.58;4.65;;;14.10;99.90;;;;;;5007809;28;20054;-91
2021/09/13 06:11:51;;;;;;;21.27;5.13;;;13.40;99.90;;;;;;4961156;28;20046;-91
2021/09/13 06:14:25;;;;;;;10.02;3.92;;;13.40;99.90;;;;;;5008765;28;20049;-90
2021/09/13 06:17:02;;;;;;;15.43;4.88;;;14.10;99.90;;;;;;5024847;28;20064;-90
2021/09/13 06:19:42;;;;;;;13.02;4.53;;;14.50;99.90;;;;;;4996578;28;20050;-91
2021/09/13 06:22:25;;;;;;;14.07;4.68;;;14.20;99.90;;;;;;5009961;28;20054;-91
2021/09/13 06:24:58;;;;;;;22.90;5.63;;;14.20;99.90;;;;;;4975356;28;20623;-87
2021/09/13 06:27:32;;;;;;;20.83;7.23;;;14.30;99.90;;;;;;4998366;28;20051;-87
2021/09/13 06:30:04;;;;;;;17.13;5.60;;;14.30;99.90;;;;;;4962074;28;20062;-88
2021/09/13 06:32:41;;;;;;;11.25;5.25;;;14.30;99.90;;;;;;4987616;28;20050;-87
2021/09/13 06:35:16;;;;;;;14.45;5.60;;;14.50;99.90;;;;;;4999916;28;20058;-88
2021/09/13 06:38:03;;;;;;;16.30;6.57;;;14.40;99.90;;;;;;4992953;28;20740;-87
2021/09/13 06:40:35;;;;;;;10.00;5.45;;;14.30;99.90;;;;;;5003671;28;20058;-89
2021/09/13 06:43:20;;;;;;;17.48;5.15;;;14.50;99.90;;;;;;5004685;28;20059;-85
2021/09/13 06:48:39;;;;;;;14.98;4.72;;;14.60;99.90;;;;;;5006081;28;20076;-87
2021/09/13 06:51:08;;;;;;;19.52;5.47;;;14.60;99.90;;;;;;5004773;28;20047;-86
2021/09/13 06:53:38;;;;;;;16.95;5.38;;;14.70;99.90;;;;;;5009222;28;20064;-88
2021/09/13 06:56:11;;;;;;;17.55;4.68;;;14.80;99.90;;;;;;4981337;28;20054;-88
2021/09/13 06:58:45;;;;;;;11.40;5.43;;;14.80;99.90;;;;;;4969268;28;20038;-88
2021/09/13 07:01:23;;;;;;;14.55;4.80;;;14.90;99.90;;;;;;4986714;28;20291;-88
2021/09/13 07:04:05;;;;;;;14.77;5.80;;;15.00;99.90;;;;;;4998522;28;20045;-89
2021/09/13 07:07:01;;;;;;;12.23;5.95;;;15.00;99.90;;;;;;4999465;28;20422;-88
2021/09/13 07:09:36;;;;;;;8.77;4.50;;;15.10;99.90;;;;;;4995816;28;20046;-88
2021/09/13 07:12:11;;;;;;;11.00;5.88;;;15.10;99.90;;;;;;5002520;28;20587;-88
2021/09/13 07:14:47;;;;;;;13.85;5.10;;;15.20;99.90;;;;;;5001450;28;20058;-87
2021/09/13 07:17:19;;;;;;;12.68;5.53;;;15.30;99.90;;;;;;5000237;28;20143;-89
2021/09/13 07:19:51;;;;;;;21.13;6.05;;;15.30;99.90;;;;;;4997582;28;20061;-89
2021/09/13 07:22:22;;;;;;;17.58;5.15;;;15.30;99.90;;;;;;4995923;28;20046;-88
2021/09/13 07:24:54;;;;;;;19.45;4.53;;;15.40;99.90;;;;;;4978871;28;20514;-86
2021/09/13 07:27:22;;;;;;;15.68;4.70;;;15.40;99.90;;;;;;4994717;28;20046;-89
2021/09/13 07:29:50;;;;;;;18.85;6.95;;;15.50;99.90;;;;;;4998306;28;20050;-90
2021/09/13 07:32:19;;;;;;;26.98;6.00;;;15.50;99.90;;;;;;4981939;28;20050;-88
2021/09/13 07:34:47;;;;;;;15.93;5.25;;;15.60;99.90;;;;;;4989938;28;20388;-88
2021/09/13 07:37:16;;;;;;;11.93;4.90;;;15.70;99.90;;;;;;4996993;28;20058;-88
2021/09/13 07:39:46;;;;;;;21.48;7.18;;;15.80;99.90;;;;;;4991341;28;20050;-88
2021/09/13 07:42:15;;;;;;;16.33;5.65;;;15.80;99.90;;;;;;4960276;28;20050;-89
2021/09/13 07:44:42;;;;;;;15.57;5.30;;;15.90;99.90;;;;;;4993755;28;20042;-88
2021/09/13 07:47:12;;;;;;;19.83;6.55;;;16.00;99.90;;;;;;4977541;28;20054;-88
2021/09/13 07:49:42;;;;;;;19.73;5.15;;;16.10;99.90;;;;;;4979321;28;20401;-88
2021/09/13 07:52:11;;;;;;;21.67;5.97;;;16.10;99.90;;;;;;4998320;28;20065;-89
2021/09/13 07:54:39;;;;;;;18.25;6.07;;;16.20;99.90;;;;;;4979597;28;20042;-88
2021/09/13 07:57:08;;;;;;;15.05;4.85;;;16.30;99.90;;;;;;4979275;28;20047;-88
2021/09/13 07:59:36;;;;;;;11.80;4.68;;;16.40;99.90;;;;;;4979739;28;20042;-90
2021/09/13 08:02:04;;;;;;;9.45;4.18;;;15.70;99.90;;;;;;4989968;28;20039;-89
2021/09/13 08:04:33;;;;;;;12.38;5.05;;;16.50;99.90;;;;;;4997741;28;20509;-87
2021/09/13 08:07:04;;;;;;;;;;;16.60;99.90;;;;;;4981594;28;20366;-86
2021/09/13 08:09:35;;;;;;;19.50;6.15;;;16.60;99.90;;;;;;4979115;28;19933;-88
2021/09/13 08:12:04;;;;;;;16.52;5.25;;;16.70;99.90;;;;;;4976226;28;20058;-88
2021/09/13 08:14:34;;;;;;;12.77;4.88;;;16.80;99.90;;;;;;4986424;28;20050;-88
2021/09/13 08:17:07;;;;;;;16.77;5.50;;;16.80;99.90;;;;;;4977851;28;20054;-87
2021/09/13 08:19:39;;;;;;;24.75;5.47;;;16.90;99.90;;;;;;5004533;28;20047;-89
2021/09/13 08:22:12;;;;;;;12.10;4.35;;;16.90;99.90;;;;;;4982452;28;20062;-88
2021/09/13 08:24:42;;;;;;;13.23;4.97;;;17.00;99.90;;;;;;4999380;28;20051;-88
2021/09/13 08:27:25;;;;;;;27.38;6.70;;;17.10;99.90;;;;;;4972504;28;20058;-88
2021/09/13 08:29:53;;;;;;;20.83;6.10;;;17.20;99.90;;;;;;5002557;28;20051;-88
2021/09/13 08:32:24;;;;;;;15.45;5.60;;;17.20;99.90;;;;;;5000320;28;20046;-88
2021/09/13 08:34:53;;;;;;;30.17;7.97;;;17.30;99.90;;;;;;4964669;28;20057;-89
2021/09/13 08:37:26;;;;;;;;;;;17.40;99.90;;;;;;5000939;28;20296;-87
2021/09/13 08:40:12;;;;;;;19.83;7.00;;;17.50;99.90;;;;;;5006990;28;20383;-88
2021/09/13 08:43:09;;;;;;;18.15;5.15;;;17.50;99.90;;;;;;5008827;28;20051;-89
2021/09/13 08:45:49;;;;;;;16.20;4.45;;;17.60;99.90;;;;;;5006360;28;20059;-88
2021/09/13 08:48:26;;;;;;;13.32;4.50;;;17.70;99.90;;;;;;4998718;28;20042;-86
2021/09/13 08:51:30;;;;;;;18.15;5.03;;;17.70;99.90;;;;;;4973853;28;20069;-88
2021/09/13 08:54:17;;;;;;;17.88;4.15;;;17.80;99.90;;;;;;5009244;28;20046;-86
2021/09/13 08:56:58;;;;;;;18.88;4.80;;;18.00;99.90;;;;;;4987400;28;20070;-86
2021/09/13 08:59:34;;;;;;;13.55;4.47;;;18.10;99.90;;;;;;4977243;28;20057;-90
2021/09/13 09:02:18;;;;;;;10.50;4.53;;;18.20;99.90;;;;;;4970310;28;20050;-91
2021/09/13 09:05:05;;;;;;;14.93;4.20;;;18.20;99.90;;;;;;5012632;28;20036;-86
2021/09/13 09:07:55;;;;;;;16.85;3.78;;;18.30;99.90;;;;;;5087594;22;20041;-88
2021/09/13 09:10:29;;;;;;;16.27;4.32;;;18.40;99.90;;;;;;5075025;28;20044;-88
2021/09/13 09:13:12;;;;;;;11.45;3.03;;;18.50;99.90;;;;;;5033045;28;20041;-87
2021/09/13 09:16:06;;;;;;;7.22;2.45;;;18.50;99.90;;;;;;5050920;28;20017;-87
2021/09/13 09:18:52;;;;;;;8.52;2.50;;;18.60;99.90;;;;;;5032257;28;20056;-88
2021/09/13 09:21:33;;;;;;;9.73;2.38;;;18.70;99.90;;;;;;5026238;28;20049;-88
2021/09/13 09:24:07;;;;;;;10.60;2.13;;;18.80;99.90;;;;;;5028103;28;20076;-87
2021/09/13 09:27:04;;;;;;;12.65;2.45;;;18.80;99.90;;;;;;5045428;28;20048;-86
2021/09/13 09:30:49;;;;;;;10.02;2.53;;;18.90;99.90;;;;;;5199695;23;20057;-88
2021/09/13 09:33:23;;;;;;;9.00;2.13;;;19.00;99.90;;;;;;4986750;28;20049;-88
2021/09/13 09:35:57;;;;;;;7.00;2.20;;;19.10;99.90;;;;;;5017793;28;20041;-87
2021/09/13 09:38:32;;;;;;;34.42;4.70;;;19.20;99.90;;;;;;5035321;28;20053;-88
2021/09/13 09:41:14;;;;;;;4.32;1.45;;;19.30;99.90;;;;;;5010709;28;20045;-86
2021/09/13 09:43:56;;;;;;;12.32;2.08;;;19.50;99.90;;;;;;5026974;28;20061;-89
2021/09/13 09:46:36;;;;;;;4.95;1.10;;;19.60;99.90;;;;;;5017410;28;20066;-90
2021/09/13 09:49:07;;;;;;;4.50;1.17;;;19.60;99.90;;;;;;5027281;28;20054;-88
2021/09/13 09:51:41;;;;;;;3.95;1.30;;;19.80;99.90;;;;;;5015169;28;20061;-88
2021/09/13 09:54:12;;;;;;;8.38;1.60;;;19.90;99.90;;;;;;5012203;28;20064;-89
2021/09/13 09:56:45;;;;;;;7.20;1.65;;;20.00;99.90;;;;;;4999269;28;20053;-88
2021/09/13 09:59:23;;;;;;;2.50;1.20;;;20.10;99.90;;;;;;5013882;28;20053;-88
2021/09/13 10:01:57;;;;;;;7.97;1.25;;;20.20;99.90;;;;;;5020592;28;20045;-88
2021/09/13 10:04:28;;;;;;;7.50;1.45;;;20.30;99.90;;;;;;5011466;28;20041;-87
2021/09/13 10:07:00;;;;;;;6.18;1.58;;;20.40;99.90;;;;;;5036631;28;20045;-88
2021/09/13 10:10:36;;;;;;;3.95;1.20;;;20.60;99.90;;;;;;5007338;28;20057;-87
2021/09/13 10:14:25;;;;;;;5.63;1.60;;;20.70;99.90;;;;;;5014598;28;20054;-88
2021/09/13 10:18:16;;;;;;;6.47;1.50;;;20.90;99.60;;;;;;4993103;28;20050;-87
2021/09/13 10:20:52;;;;;;;8.52;1.83;;;20.90;98.70;;;;;;4973118;28;20034;-88
2021/09/13 10:23:24;;;;;;;10.63;2.63;;;20.90;99.10;;;;;;4973702;28;20057;-88
2021/09/13 10:25:53;;;;;;;6.85;1.33;;;20.90;98.90;;;;;;4979293;28;20073;-88
2021/09/13 10:28:23;;;;;;;3.00;1.47;;;20.90;98.80;;;;;;4980993;28;20091;-89
2021/09/13 10:30:55;;;;;;;9.65;1.80;;;20.90;98.80;;;;;;4959790;28;20050;-89
2021/09/13 10:33:59;;;;;;;9.48;2.05;;;20.90;98.70;;;;;;4964808;28;20449;-88
2021/09/13 10:36:59;;;;;;;4.50;1.63;;;20.90;98.20;;;;;;4994244;28;20061;-90
2021/09/13 10:39:48;;;;;;;6.68;1.42;;;21.20;97.80;;;;;;4976458;28;20042;-89
2021/09/13 10:42:26;;;;;;;6.78;1.70;;;21.00;98.00;;;;;;4965780;28;20065;-89
2021/09/13 10:45:36;;;;;;;5.47;2.72;;;21.00;98.20;;;;;;4982196;28;20050;-88
2021/09/13 10:48:08;;;;;;;6.53;1.33;;;21.10;97.40;;;;;;4899096;29;20079;-88
2021/09/13 10:50:49;;;;;;;19.40;3.08;;;21.20;98.00;;;;;;4984292;28;20054;-88
2021/09/13 10:53:17;;;;;;;9.23;1.80;;;21.30;98.00;;;;;;4994104;28;20057;-89
2021/09/13 10:56:00;;;;;;;11.02;1.50;;;21.20;97.50;;;;;;4959448;28;20057;-86
2021/09/13 10:58:30;;;;;;;8.23;1.40;;;21.20;97.40;;;;;;4979655;28;20509;-90
2021/09/13 11:01:06;;;;;;;10.73;2.40;;;21.10;97.60;;;;;;4981423;28;20216;-86
2021/09/13 11:03:37;;;;;;;5.25;1.58;;;21.10;97.20;;;;;;4993789;28;20050;-89
2021/09/13 11:06:28;;;;;;;;;;;;;;;;;;;;;
2021/09/13 11:09:23;;;;;;;4.15;1.92;;;21.00;97.50;;;;;;4821189;26;20057;-90
2021/09/13 11:11:56;;;;;;;12.68;1.60;;;21.00;97.50;;;;;;4992035;28;20050;-90
2021/09/13 11:14:32;;;;;;;5.07;2.42;;;21.10;97.10;;;;;;4994932;28;20055;-90
2021/09/13 11:17:03;;;;;;;15.75;2.30;;;21.10;97.20;;;;;;5007272;28;20060;-91
2021/09/13 11:19:38;;;;;;;4.00;1.52;;;21.20;97.20;;;;;;5001521;28;20057;-91
2021/09/13 11:22:10;;;;;;;8.45;1.65;;;21.40;97.10;;;;;;5018392;28;20053;-90
2021/09/13 11:24:43;;;;;;;3.72;1.30;;;21.50;97.20;;;;;;5002139;28;20052;-89
2021/09/13 11:27:19;;;;;;;4.70;1.58;;;21.80;96.50;;;;;;5034770;28;20053;-90
2021/09/13 11:30:03;;;;;;;7.90;2.70;;;22.80;96.10;;;;;;5010816;28;20064;-90
2021/09/13 11:32:33;;;;;;;7.57;1.63;;;21.80;95.80;;;;;;5013341;28;20055;-89
2021/09/13 11:35:18;;;;;;;7.53;1.95;;;21.70;95.40;;;;;;5011086;28;20060;-89
2021/09/13 11:37:58;;;;;;;8.68;2.53;;;21.70;95.20;;;;;;5017136;28;20061;-91
2021/09/13 11:40:45;;;;;;;4.82;1.58;;;21.60;94.60;;;;;;5020299;28;20072;-90
2021/09/13 11:43:18;;;;;;;7.57;1.40;;;21.60;94.80;;;;;;5005263;28;20252;-90
2021/09/13 11:46:07;;;;;;;3.05;2.05;;;21.10;95.00;;;;;;4992137;28;20045;-89
2021/09/13 11:48:43;;;;;;;12.95;2.30;;;21.60;95.30;;;;;;5021825;28;20053;-89
2021/09/13 11:51:13;;;;;;;9.10;2.75;;;21.70;95.80;;;;;;4992263;28;20049;-90
2021/09/13 11:54:08;;;;;;;6.78;2.55;;;21.80;95.30;;;;;;5025026;28;20045;-89
2021/09/13 11:56:47;;;;;;;7.65;2.13;;;21.80;94.90;;;;;;5004689;28;20057;-89
2021/09/13 11:59:32;;;;;;;11.18;1.95;;;21.90;94.90;;;;;;5025362;28;20053;-90
2021/09/13 12:02:04;;;;;;;5.47;1.85;;;22.00;95.00;;;;;;5019935;28;20054;-88
2021/09/13 12:04:35;;;;;;;6.32;1.77;;;21.30;95.10;;;;;;5011053;28;20034;-89
2021/09/13 12:07:11;;;;;;;4.20;1.40;;;22.00;94.70;;;;;;5008862;28;20064;-89
2021/09/13 12:09:48;;;;;;;13.18;3.33;;;21.80;94.70;;;;;;4991437;28;20516;-89
2021/09/13 12:12:22;;;;;;;6.97;1.45;;;21.80;95.00;;;;;;5027680;28;20453;-88
2021/09/13 12:14:55;;;;;;;7.95;1.85;;;21.80;94.70;;;;;;5006818;28;20057;-86
2021/09/13 12:17:23;;;;;;;9.50;1.67;;;21.80;94.80;;;;;;4982807;28;20042;-89
2021/09/13 12:20:13;;;;;;;8.82;1.70;;;21.80;94.90;;;;;;5012686;28;20046;-89
2021/09/13 12:22:45;;;;;;;5.60;1.45;;;21.80;94.90;;;;;;5039964;28;20045;-89
2021/09/13 12:25:21;;;;;;;8.18;1.50;;;21.80;94.70;;;;;;4998114;28;20046;-88
2021/09/13 12:28:05;;;;;;;6.13;1.60;;;21.70;94.60;;;;;;4999465;28;20068;-89
2021/09/13 12:31:04;;;;;;;8.70;2.85;;;21.70;94.60;;;;;;5010474;28;20041;-89
2021/09/13 12:33:47;;;;;;;6.13;1.20;;;21.80;94.70;;;;;;5005881;28;20050;-88
2021/09/13 12:36:41;;;;;;;3.17;1.27;;;22.00;94.60;;;;;;5009277;28;20040;-89
2021/09/13 12:40:32;;;;;;;11.15;1.90;;;22.20;94.10;;;;;;5023530;28;20044;-89
2021/09/13 12:44:36;;;;;;;16.40;2.67;;;22.30;93.60;;;;;;5053486;22;20040;-89
2021/09/13 12:47:24;;;;;;;9.77;1.35;;;22.40;93.90;;;;;;5025883;28;20054;-89
2021/09/13 12:50:41;;;;;;;6.13;1.30;;;23.10;94.20;;;;;;5028949;28;20135;-88
2021/09/13 12:54:32;;;;;;;12.50;1.75;;;22.60;93.90;;;;;;5072639;28;20037;-89
2021/09/13 12:57:02;;;;;;;7.05;1.30;;;22.60;93.70;;;;;;5024394;28;20055;-90
2021/09/13 12:59:43;;;;;;;6.28;1.20;;;22.60;93.70;;;;;;5023538;28;20053;-89
2021/09/13 13:02:18;;;;;;;3.60;1.00;;;22.60;92.70;;;;;;5025126;28;20056;-88
2021/09/13 13:04:49;;;;;;;3.28;1.27;;;21.90;93.20;;;;;;5026320;28;20049;-88
2021/09/13 13:07:22;;;;;;;4.70;1.13;;;22.20;93.30;;;;;;5016850;28;20056;-89
2021/09/13 13:09:51;;;;;;;4.40;1.50;;;22.40;93.50;;;;;;5006520;28;20135;-89
2021/09/13 13:12:21;;;;;;;12.02;1.35;;;22.50;93.50;;;;;;5004535;28;20194;-89
2021/09/13 13:14:51;;;;;;;4.10;1.13;;;22.50;93.30;;;;;;5001863;28;20045;-89
2021/09/13 13:17:20;;;;;;;8.73;1.67;;;22.50;93.10;;;;;;5025112;28;20025;-89
2021/09/13 13:19:48;;;;;;;4.32;1.30;;;22.50;93.10;;;;;;5015880;28;20405;-88
2021/09/13 13:22:31;;;;;;;5.63;1.48;;;22.50;93.20;;;;;;5034992;28;20037;-92
2021/09/13 13:25:12;;;;;;;8.13;2.78;;;22.40;93.20;;;;;;5042358;28;20059;-90
2021/09/13 13:27:49;;;;;;;9.90;1.52;;;22.20;93.30;;;;;;5002784;28;20053;-92
2021/09/13 13:30:40;;;;;;;;;;;22.10;93.40;;;;;;5002642;28;20040;-93
2021/09/13 13:33:12;;;;;;;3.40;1.38;;;22.00;93.60;;;;;;5017356;28;19932;-89
2021/09/13 13:35:44;;;;;;;6.65;1.45;;;21.90;93.60;;;;;;5050488;28;20057;-91
2021/09/13 13:38:24;;;;;;;10.13;1.70;;;22.00;93.70;;;;;;5012113;28;20058;-92
2021/09/13 13:41:15;;;;;;;5.10;2.03;;;21.90;93.80;;;;;;5017783;28;20428;-89
2021/09/13 13:43:46;;;;;;;7.78;2.22;;;21.80;93.80;;;;;;5032342;28;20050;-92
2021/09/13 13:46:32;;;;;;;5.93;1.45;;;21.80;93.60;;;;;;5012579;28;20062;-89
2021/09/13 13:49:07;;;;;;;7.03;1.55;;;21.60;94.00;;;;;;5023433;28;20045;-88
2021/09/13 13:51:42;;;;;;;12.80;2.25;;;21.60;93.80;;;;;;5052546;28;20045;-91
2021/09/13 13:54:24;;;;;;;11.98;2.30;;;21.60;94.30;;;;;;5020812;28;20056;-90
2021/09/13 13:56:59;;;;;;;9.07;2.40;;;21.60;94.00;;;;;;5001898;28;20045;-89
2021/09/13 13:59:54;;;;;;;10.00;2.17;;;21.50;94.00;;;;;;5023377;28;20053;-89
2021/09/13 14:02:42;;;;;;;7.28;1.10;;;21.60;94.40;;;;;;5008423;28;20030;-88
2021/09/13 14:05:34;;;;;;;7.57;1.55;;;21.60;94.10;;;;;;5041716;28;20056;-88
2021/09/13 14:08:24;;;;;;;5.38;1.52;;;21.70;94.10;;;;;;5020824;28;20044;-88
2021/09/13 14:11:46;;;;;;;7.47;2.00;;;21.70;94.30;;;;;;5031932;28;20053;-88
2021/09/13 14:14:23;;;;;;;7.93;1.70;;;22.00;94.30;;;;;;4995472;28;20045;-85